Time;durP1;ratioP1;P1;durP2;ratioP2;P2;SDS_P1;SDS_P2;PMS_P1;PMS_P2;Temp;Humidity;BMP_temperature;BMP_pressure;BME280_temperature;BME280_humidity;BME280_pressure;Samples;Min_cycle;Max_cycle;Signal;HPM_P1;HPM_P2
2021/08/24 00:01:49;;;;;;;;;;;;;;;19.74;62.15;102536.69;5117141;28;1000;-49
2021/08/24 00:04:14;;;;;;;;;;;;;;;19.78;62.54;102538.19;5117415;28;1549;-48
2021/08/24 00:06:39;;;;;;;;;;;;;;;19.77;62.41;102531.94;5133329;27;1972;-47
2021/08/24 00:09:04;;;;;;;;;;;;;;;19.79;61.97;102534.50;5137937;27;928;-48
2021/08/24 00:11:33;;;;;;;;;;;;;;;19.79;61.97;102533.66;5137341;27;1020;-50
2021/08/24 00:13:58;;;;;;;;;;;;;;;19.81;62.53;102537.09;5137509;27;1771;-46
2021/08/24 00:16:23;;;;;;;;;;;;;;;19.82;61.90;102538.84;5137846;27;1005;-49
2021/08/24 00:18:48;;;;;;;;;;;;;;;19.81;62.09;102532.56;5136952;27;1894;-50
2021/08/24 00:21:13;;;;;;;;;;;;;;;19.82;62.57;102528.00;5120306;27;1844;-50
2021/08/24 00:23:38;;;;;;;;;;;;;;;19.83;62.41;102535.16;5116879;28;825;-50
2021/08/24 00:26:04;;;;;;;;;;;;;;;19.83;62.28;102527.03;5116921;28;1013;-48
2021/08/24 00:28:29;;;;;;;;;;;;;;;19.83;62.10;102527.91;5117152;28;937;-49
2021/08/24 00:30:54;;;;;;;;;;;;;;;19.82;62.10;102530.72;5116929;28;814;-47
2021/08/24 00:33:19;;;;;;;;;;;;;;;19.83;62.07;102530.59;5117195;28;838;-48
2021/08/24 00:35:44;;;;;;;;;;;;;;;19.84;61.99;102528.75;5134891;27;1750;-46
2021/08/24 00:38:09;;;;;;;;;;;;;;;19.84;62.32;102528.75;5136585;27;1890;-47
2021/08/24 00:40:34;;;;;;;;;;;;;;;19.83;62.18;102533.31;5136914;27;1008;-47
2021/08/24 00:42:59;;;;;;;;;;;;;;;19.84;62.03;102534.16;5136853;27;996;-49
2021/08/24 00:45:24;;;;;;;;;;;;;;;19.84;62.15;102534.16;5137069;27;822;-45
2021/08/24 00:47:50;;;;;;;;;;;;;;;19.84;61.85;102536.88;5132995;27;1763;-48
2021/08/24 00:50:15;;;;;;;;;;;;;;;19.84;61.82;102545.84;5098379;28;1576;-46
2021/08/24 00:52:40;;;;;;;;;;;;;;;19.82;62.03;102539.69;5116343;28;822;-45
2021/08/24 00:55:05;;;;;;;;;;;;;;;19.83;61.75;102538.72;5116260;28;855;-46
2021/08/24 00:57:30;;;;;;;;;;;;;;;19.82;62.73;102534.28;5116351;28;1918;-48
2021/08/24 00:59:55;;;;;;;;;;;;;;;19.82;61.90;102541.53;5098367;28;1777;-46
2021/08/24 01:02:20;;;;;;;;;;;;;;;19.81;61.82;102537.09;5122054;27;1857;-49
2021/08/24 01:04:45;;;;;;;;;;;;;;;19.82;62.59;102538.84;5135578;27;1701;-49
2021/08/24 01:07:10;;;;;;;;;;;;;;;19.81;62.06;102542.50;5124980;27;1574;-47
2021/08/24 01:09:35;;;;;;;;;;;;;;;19.80;62.51;102540.78;5124364;27;1679;-45
2021/08/24 01:12:00;;;;;;;;;;;;;;;19.80;62.95;102543.50;5133285;27;1736;-50
2021/08/24 01:14:25;;;;;;;;;;;;;;;19.79;62.03;102542.63;5136869;27;1206;-46
2021/08/24 01:16:51;;;;;;;;;;;;;;;19.79;61.85;102547.19;5129463;27;1796;-45
2021/08/24 01:19:16;;;;;;;;;;;;;;;19.76;62.15;102538.31;5116026;28;1893;-45
2021/08/24 01:21:41;;;;;;;;;;;;;;;19.76;62.20;102538.31;5116002;28;1192;-46
2021/08/24 01:24:06;;;;;;;;;;;;;;;19.77;61.53;102541.88;5115722;28;1024;-46
2021/08/24 01:26:31;;;;;;;;;;;;;;;19.78;62.64;102546.31;5115651;28;1874;-45
2021/08/24 01:28:56;;;;;;;;;;;;;;;19.77;62.34;102545.44;5115595;28;854;-46
2021/08/24 01:31:21;;;;;;;;;;;;;;;19.76;62.05;102541.03;5115653;28;1783;-50
2021/08/24 01:33:46;;;;;;;;;;;;;;;19.75;62.54;102544.69;5115398;28;853;-46
2021/08/24 01:36:11;;;;;;;;;;;;;;;19.76;62.14;102545.56;5115558;28;1009;-48
2021/08/24 01:38:36;;;;;;;;;;;;;;;19.77;62.06;102541.88;5115398;28;1917;-45
2021/08/24 01:41:01;;;;;;;;;;;;;;;19.75;62.42;102546.53;5115488;28;827;-48
2021/08/24 01:43:26;;;;;;;;;;;;;;;19.75;62.31;102549.25;5115363;28;877;-48
2021/08/24 01:45:51;;;;;;;;;;;;;;;19.75;61.95;102552.81;5115721;28;1772;-50
2021/08/24 01:48:17;;;;;;;;;;;;;;;19.74;61.60;102548.38;5115601;28;1851;-47
2021/08/24 01:50:42;;;;;;;;;;;;;;;19.75;62.44;102554.66;5115385;28;932;-45
2021/08/24 01:53:07;;;;;;;;;;;;;;;19.74;61.88;102553.78;5115468;28;929;-50
2021/08/24 01:55:32;;;;;;;;;;;;;;;19.73;62.47;102554.78;5115909;28;897;-52
2021/08/24 01:57:57;;;;;;;;;;;;;;;19.72;62.04;102555.75;5115366;28;1893;-51
2021/08/24 02:00:22;;;;;;;;;;;;;;;19.73;61.87;102557.47;5128700;27;1636;-52
2021/08/24 02:02:47;;;;;;;;;;;;;;;19.72;62.36;102565.72;5139759;27;945;-52
2021/08/24 02:05:12;;;;;;;;;;;;;;;19.73;62.12;102564.72;5139919;27;1619;-51
2021/08/24 02:07:38;;;;;;;;;;;;;;;19.72;62.15;102565.72;5140123;27;884;-51
2021/08/24 02:10:03;;;;;;;;;;;;;;;19.69;62.58;102561.44;5121864;27;1016;-52
2021/08/24 02:12:28;;;;;;;;;;;;;;;19.70;62.48;102567.69;5140026;27;928;-50
2021/08/24 02:14:53;;;;;;;;;;;;;;;19.68;62.29;102567.81;5128278;27;1883;-50
2021/08/24 02:17:18;;;;;;;;;;;;;;;19.69;62.67;102574.09;5118870;28;1960;-51
2021/08/24 02:19:43;;;;;;;;;;;;;;;19.67;62.90;102566.09;5119043;28;1186;-46
2021/08/24 02:22:08;;;;;;;;;;;;;;;19.68;62.50;102569.66;5118961;28;865;-49
2021/08/24 02:24:33;;;;;;;;;;;;;;;19.67;62.54;102565.22;5119145;28;1782;-47
2021/08/24 02:26:58;;;;;;;;;;;;;;;19.67;61.88;102566.09;5119234;28;909;-46
2021/08/24 02:29:23;;;;;;;;;;;;;;;19.67;62.30;102562.50;5135628;27;1845;-52
2021/08/24 02:31:48;;;;;;;;;;;;;;;19.66;62.28;102564.34;5139548;27;1075;-49
2021/08/24 02:34:13;;;;;;;;;;;;;;;19.67;61.82;102562.50;5139275;27;913;-47
2021/08/24 02:36:38;;;;;;;;;;;;;;;19.67;62.28;102573.34;5139475;27;1001;-47
2021/08/24 02:39:04;;;;;;;;;;;;;;;19.65;62.31;102568.03;5129609;27;1906;-51
2021/08/24 02:41:29;;;;;;;;;;;;;;;19.64;62.63;102566.31;5119344;28;1799;-45
2021/08/24 02:43:54;;;;;;;;;;;;;;;19.63;62.62;102570.00;5118871;28;822;-47
2021/08/24 02:46:19;;;;;;;;;;;;;;;19.63;62.71;102567.28;5100873;28;1469;-46
2021/08/24 02:48:44;;;;;;;;;;;;;;;19.64;62.18;102574.44;5119150;28;1060;-49
2021/08/24 02:51:15;;;;;;;;;;;;;;;19.63;62.64;102567.28;5126730;27;1795;-46
2021/08/24 02:53:40;;;;;;;;;;;;;;;19.63;62.25;102567.28;5138971;27;1820;-47
2021/08/24 02:56:05;;;;;;;;;;;;;;;19.63;62.96;102567.28;5120675;27;1643;-48
2021/08/24 02:58:30;;;;;;;;;;;;;;;19.63;62.76;102572.69;5138972;27;1889;-49
2021/08/24 03:00:55;;;;;;;;;;;;;;;19.63;62.88;102572.69;5139094;27;984;-51
2021/08/24 03:03:20;;;;;;;;;;;;;;;19.62;62.40;102568.25;5139235;27;1009;-46
2021/08/24 03:05:45;;;;;;;;;;;;;;;19.62;62.64;102572.81;5138637;27;1763;-47
2021/08/24 03:08:10;;;;;;;;;;;;;;;19.59;62.80;102568.50;5139081;27;893;-45
2021/08/24 03:10:35;;;;;;;;;;;;;;;19.61;62.81;102577.34;5138533;27;1639;-47
2021/08/24 03:13:00;;;;;;;;;;;;;;;19.60;62.66;102566.66;5139011;27;1022;-45
2021/08/24 03:15:26;;;;;;;;;;;;;;;19.60;62.60;102569.34;5138842;27;856;-46
2021/08/24 03:17:51;;;;;;;;;;;;;;;19.59;62.82;102565.78;5138990;27;1902;-44
2021/08/24 03:20:16;;;;;;;;;;;;;;;19.60;62.25;102566.66;5125291;27;1850;-46
2021/08/24 03:22:41;;;;;;;;;;;;;;;19.58;62.81;102569.47;5118650;28;968;-46
2021/08/24 03:25:06;;;;;;;;;;;;;;;19.58;62.91;102569.47;5118038;28;833;-45
2021/08/24 03:27:31;;;;;;;;;;;;;;;19.59;63.16;102575.75;5118341;28;1911;-46
2021/08/24 03:29:56;;;;;;;;;;;;;;;19.58;62.69;102574.00;5117826;28;1586;-46
2021/08/24 03:32:21;;;;;;;;;;;;;;;19.57;62.69;102566.88;5117659;28;1488;-49
2021/08/24 03:34:46;;;;;;;;;;;;;;;19.56;62.54;102575.97;5134256;27;1870;-48
2021/08/24 03:37:11;;;;;;;;;;;;;;;19.56;62.44;102576.84;5138548;27;1915;-46
2021/08/24 03:39:36;;;;;;;;;;;;;;;19.56;62.91;102575.97;5138191;27;853;-48
2021/08/24 03:42:01;;;;;;;;;;;;;;;19.55;63.27;102574.25;5138306;27;1036;-46
2021/08/24 03:44:27;;;;;;;;;;;;;;;19.55;62.57;102571.53;5138479;27;968;-46
2021/08/24 03:46:52;;;;;;;;;;;;;;;19.55;63.32;102576.94;5122904;27;1758;-48
2021/08/24 03:49:17;;;;;;;;;;;;;;;19.54;63.12;102578.78;5117252;28;1465;-48
2021/08/24 03:51:42;;;;;;;;;;;;;;;19.53;63.20;102579.75;5117798;28;1020;-46
2021/08/24 03:54:07;;;;;;;;;;;;;;;19.53;62.97;102574.34;5117363;28;924;-46
2021/08/24 03:56:32;;;;;;;;;;;;;;;19.53;62.51;102574.34;5117475;28;1020;-49
2021/08/24 03:58:57;;;;;;;;;;;;;;;19.51;63.07;102576.34;5116933;28;1898;-47
2021/08/24 04:01:22;;;;;;;;;;;;;;;19.51;62.36;102579.03;5133099;27;1929;-50
2021/08/24 04:03:47;;;;;;;;;;;;;;;19.51;62.86;102570.94;5116764;28;1195;-46
2021/08/24 04:06:12;;;;;;;;;;;;;;;19.50;63.06;102577.31;5116622;28;925;-46
2021/08/24 04:08:37;;;;;;;;;;;;;;;19.49;62.62;102578.25;5116988;28;791;-46
2021/08/24 04:11:02;;;;;;;;;;;;;;;19.49;62.68;102590.91;5117178;28;918;-48
2021/08/24 04:13:27;;;;;;;;;;;;;;;19.49;62.43;102580.97;5118467;28;1734;-51
2021/08/24 04:15:53;;;;;;;;;;;;;;;19.48;63.03;102587.34;5137967;27;866;-49
2021/08/24 04:18:18;;;;;;;;;;;;;;;19.48;62.76;102579.22;5137690;27;1956;-47
2021/08/24 04:20:43;;;;;;;;;;;;;;;19.48;62.38;102590.06;5137350;27;1103;-48
2021/08/24 04:23:08;;;;;;;;;;;;;;;19.47;63.09;102588.31;5136710;27;1747;-47
2021/08/24 04:25:33;;;;;;;;;;;;;;;19.47;63.15;102603.69;5137688;27;857;-50
2021/08/24 04:27:58;;;;;;;;;;;;;;;19.46;63.11;102591.13;5133349;27;1901;-52
2021/08/24 04:30:23;;;;;;;;;;;;;;;19.46;62.59;102602.81;5116517;28;1021;-48
2021/08/24 04:32:48;;;;;;;;;;;;;;;19.44;62.74;102607.47;5116314;28;921;-50
2021/08/24 04:35:13;;;;;;;;;;;;;;;19.45;62.95;102606.50;5116517;28;1173;-50
2021/08/24 04:37:38;;;;;;;;;;;;;;;19.43;62.71;102603.91;5116820;28;1973;-50
2021/08/24 04:40:03;;;;;;;;;;;;;;;19.45;63.23;102602.94;5116660;28;1063;-50
2021/08/24 04:42:28;;;;;;;;;;;;;;;19.44;62.72;102604.78;5121909;27;1806;-48
2021/08/24 04:44:54;;;;;;;;;;;;;;;19.44;63.42;102615.59;5126847;27;1808;-47
2021/08/24 04:47:19;;;;;;;;;;;;;;;19.42;63.36;102614.84;5116264;28;833;-47
2021/08/24 04:49:44;;;;;;;;;;;;;;;19.42;62.85;102610.28;5116627;28;870;-47
2021/08/24 04:52:09;;;;;;;;;;;;;;;19.42;63.29;102612.13;5116130;28;757;-48
2021/08/24 04:54:34;;;;;;;;;;;;;;;19.42;62.75;102617.53;5116376;28;1013;-50
2021/08/24 04:56:59;;;;;;;;;;;;;;;19.42;63.19;102617.53;5127015;27;1761;-46
2021/08/24 04:59:24;;;;;;;;;;;;;;;19.42;63.31;102612.13;5136955;27;1893;-46
2021/08/24 05:01:49;;;;;;;;;;;;;;;19.43;63.46;102608.44;5103030;27;1806;-47
2021/08/24 05:04:14;;;;;;;;;;;;;;;19.45;63.16;102609.22;5136934;27;1016;-48
2021/08/24 05:06:39;;;;;;;;;;;;;;;19.46;62.98;102613.63;5136303;27;838;-49
2021/08/24 05:09:04;;;;;;;;;;;;;;;19.52;63.33;102607.81;5136357;27;1071;-46
2021/08/24 05:11:29;;;;;;;;;;;;;;;19.55;62.66;102612.09;5135967;27;1963;-48
2021/08/24 05:13:54;;;;;;;;;;;;;;;19.59;63.52;102614.47;5130943;27;1572;-47
2021/08/24 05:16:20;;;;;;;;;;;;;;;19.61;63.01;102617.06;5124069;27;1560;-48
2021/08/24 05:18:45;;;;;;;;;;;;;;;19.62;62.89;102619.66;5125262;27;1953;-45
2021/08/24 05:21:10;;;;;;;;;;;;;;;19.65;63.55;102613.16;5116037;28;1830;-45
2021/08/24 05:23:35;;;;;;;;;;;;;;;19.66;63.37;102610.34;5118329;27;1662;-46
2021/08/24 05:26:00;;;;;;;;;;;;;;;19.66;64.15;102628.41;5128080;27;1967;-45
2021/08/24 05:28:25;;;;;;;;;;;;;;;19.68;63.45;102608.38;5124311;27;1495;-46
2021/08/24 05:30:50;;;;;;;;;;;;;;;19.70;64.72;102610.97;5127303;27;1577;-47
2021/08/24 05:33:15;;;;;;;;;;;;;;;19.73;64.17;102611.59;5128853;27;1638;-52
2021/08/24 05:35:41;;;;;;;;;;;;;;;19.75;63.99;102609.63;5125299;27;1593;-52
2021/08/24 05:38:06;;;;;;;;;;;;;;;19.77;64.64;102612.22;5125285;28;1980;-52
2021/08/24 05:40:31;;;;;;;;;;;;;;;19.77;64.98;102623.91;5122721;28;1679;-50
2021/08/24 05:42:56;;;;;;;;;;;;;;;19.80;64.07;102621.94;5126606;27;1756;-52
2021/08/24 05:45:21;;;;;;;;;;;;;;;19.82;64.60;102620.00;5126002;28;1648;-51
2021/08/24 05:47:46;;;;;;;;;;;;;;;19.83;64.41;102625.28;5123977;28;1609;-49
2021/08/24 05:50:11;;;;;;;;;;;;;;;19.83;64.40;102619.88;5124077;28;1642;-54
2021/08/24 05:52:36;;;;;;;;;;;;;;;19.89;65.19;102632.06;5124213;28;1610;-48
2021/08/24 05:55:01;;;;;;;;;;;;;;;19.88;64.85;102619.53;5123918;28;1781;-47
2021/08/24 05:57:26;;;;;;;;;;;;;;;19.91;63.79;102627.41;5133917;27;1959;-48
2021/08/24 05:59:51;;;;;;;;;;;;;;;19.91;64.45;102630.09;5135985;28;1008;-49
2021/08/24 06:02:16;;;;;;;;;;;;;;;19.97;63.68;102626.94;5136179;28;996;-50
2021/08/24 06:04:41;;;;;;;;;;;;;;;19.99;64.06;102633.09;5122860;28;1695;-48
2021/08/24 06:07:07;;;;;;;;;;;;;;;19.99;64.68;102631.25;5118915;28;1826;-48
2021/08/24 06:09:32;;;;;;;;;;;;;;;20.05;64.48;102632.66;5127756;28;1870;-48
2021/08/24 06:11:57;;;;;;;;;;;;;;;20.05;65.56;102635.34;5115180;28;849;-48
2021/08/24 06:14:22;;;;;;;;;;;;;;;20.11;64.98;102634.88;5115316;28;840;-45
2021/08/24 06:16:47;;;;;;;;;;;;;;;20.06;64.53;102631.66;5118842;28;1521;-48
2021/08/24 06:19:12;;;;;;;;;;;;;;;20.06;65.14;102642.50;5106109;28;1971;-51
2021/08/24 06:21:37;;;;;;;;;;;;;;;20.03;65.24;102640.88;5121562;28;1729;-53
2021/08/24 06:24:03;;;;;;;;;;;;;;;20.06;65.15;102645.19;5123879;28;1610;-51
2021/08/24 06:26:28;;;;;;;;;;;;;;;20.01;65.54;102641.97;5125531;28;1569;-52
2021/08/24 06:28:53;;;;;;;;;;;;;;;20.00;65.07;102646.53;5127240;27;1648;-51
2021/08/24 06:31:18;;;;;;;;;;;;;;;20.04;65.85;102649.88;5121917;28;1802;-52
2021/08/24 06:33:44;;;;;;;;;;;;;;;20.10;64.88;102652.09;5130056;28;1815;-48
2021/08/24 06:36:09;;;;;;;;;;;;;;;20.08;64.92;102654.03;5132063;27;1488;-50
2021/08/24 06:38:34;;;;;;;;;;;;;;;20.11;65.57;102653.81;5122471;28;1917;-51
2021/08/24 06:40:59;;;;;;;;;;;;;;;20.11;64.88;102651.97;5110800;28;1593;-53
2021/08/24 06:43:24;;;;;;;;;;;;;;;20.10;65.51;102654.78;5134762;28;1575;-49
2021/08/24 06:45:49;;;;;;;;;;;;;;;20.15;65.35;102651.75;5122625;27;1758;-48
2021/08/24 06:48:14;;;;;;;;;;;;;;;20.19;65.31;102651.41;5130334;27;1466;-52
2021/08/24 06:50:39;;;;;;;;;;;;;;;20.19;65.32;102654.09;5128420;27;1715;-51
2021/08/24 06:53:04;;;;;;;;;;;;;;;20.17;65.41;102647.94;5138831;27;1637;-50
2021/08/24 06:55:33;;;;;;;;;;;;;;;20.16;65.55;102651.63;5134336;27;1471;-48
2021/08/24 06:57:58;;;;;;;;;;;;;;;20.11;65.84;102656.53;5126147;27;1961;-50
2021/08/24 07:00:23;;;;;;;;;;;;;;;20.07;65.00;102658.59;5104965;27;2424;-49
2021/08/24 07:02:48;;;;;;;;;;;;;;;20.10;65.24;102662.91;5123364;27;1795;-52
2021/08/24 07:05:13;;;;;;;;;;;;;;;20.02;65.44;102670.78;5128508;27;2094;-46
2021/08/24 07:07:38;;;;;;;;;;;;;;;20.03;65.67;102673.38;5127651;27;1486;-48
2021/08/24 07:10:03;;;;;;;;;;;;;;;20.05;65.60;102675.94;5136673;27;1541;-47
2021/08/24 07:12:28;;;;;;;;;;;;;;;20.00;65.45;102684.41;5137754;27;1622;-51
2021/08/24 07:14:53;;;;;;;;;;;;;;;19.99;64.87;102673.69;5127389;27;1524;-51
2021/08/24 07:17:19;;;;;;;;;;;;;;;20.00;64.93;102679.00;5129716;27;1499;-48
2021/08/24 07:19:44;;;;;;;;;;;;;;;20.00;65.21;102678.13;5131404;27;1475;-50
2021/08/24 07:22:09;;;;;;;;;;;;;;;20.00;64.81;102664.59;5124837;27;1645;-50
2021/08/24 07:24:34;;;;;;;;;;;;;;;20.08;64.47;102678.41;5132411;27;1821;-48
2021/08/24 07:26:59;;;;;;;;;;;;;;;20.04;65.24;102690.47;5124850;27;1727;-50
2021/08/24 07:29:24;;;;;;;;;;;;;;;19.99;65.00;102674.56;5122998;27;1554;-50
2021/08/24 07:31:49;;;;;;;;;;;;;;;19.95;65.43;102662.25;5138677;27;936;-48
2021/08/24 07:34:14;;;;;;;;;;;;;;;19.98;65.33;102664.72;5137991;27;1631;-49
2021/08/24 07:36:39;;;;;;;;;;;;;;;19.94;64.57;102674.03;5138417;27;878;-49
2021/08/24 07:39:04;;;;;;;;;;;;;;;20.07;64.94;102665.84;5138262;27;1921;-51
2021/08/24 07:41:30;;;;;;;;;;;;;;;20.13;65.09;102672.66;5132917;27;1818;-48
2021/08/24 07:43:56;;;;;;;;;;;;;;;20.15;64.91;102671.56;5117600;28;995;-50
2021/08/24 07:46:21;;;;;;;;;;;;;;;20.21;65.24;102679.22;5117498;28;945;-47
2021/08/24 07:48:46;;;;;;;;;;;;;;;20.22;64.77;102672.81;5121515;27;1575;-50
2021/08/24 07:51:11;;;;;;;;;;;;;;;20.26;64.69;102673.41;5118618;27;1610;-47
2021/08/24 07:53:36;;;;;;;;;;;;;;;20.26;64.71;102671.59;5117642;28;916;-50
2021/08/24 07:56:04;;;;;;;;;;;;;;;20.24;64.32;102675.41;5127173;27;1865;-51
2021/08/24 07:58:29;;;;;;;;;;;;;;;20.19;64.85;102672.19;5138006;27;1960;-53
2021/08/24 08:00:54;;;;;;;;;;;;;;;20.17;65.07;102669.59;5137829;27;929;-49
2021/08/24 08:03:20;;;;;;;;;;;;;;;20.15;64.45;102665.28;5137964;27;885;-47
2021/08/24 08:05:45;;;;;;;;;;;;;;;20.15;64.46;102671.56;5137835;27;1024;-49
2021/08/24 08:08:10;;;;;;;;;;;;;;;20.11;65.12;102670.06;5137616;27;1012;-48
2021/08/24 08:10:35;;;;;;;;;;;;;;;20.07;65.29;102668.56;5126229;27;1890;-47
2021/08/24 08:13:00;;;;;;;;;;;;;;;20.08;64.92;102675.69;5125948;27;1737;-49
2021/08/24 08:15:26;;;;;;;;;;;;;;;20.06;64.77;102673.09;5125606;27;1707;-52
2021/08/24 08:17:51;;;;;;;;;;;;;;;20.09;64.72;102674.72;5127766;27;1965;-50
2021/08/24 08:20:16;;;;;;;;;;;;;;;20.13;64.71;102676.22;5125800;27;1724;-49
2021/08/24 08:22:43;;;;;;;;;;;;;;;20.17;64.58;102680.44;5128660;27;1787;-52
2021/08/24 08:25:08;;;;;;;;;;;;;;;20.21;64.35;102676.50;5123985;27;1845;-51
2021/08/24 08:27:33;;;;;;;;;;;;;;;20.24;64.07;102679.00;5116725;27;1811;-53
2021/08/24 08:29:58;;;;;;;;;;;;;;;20.20;64.27;102676.63;5116863;28;885;-50
2021/08/24 08:32:23;;;;;;;;;;;;;;;20.21;64.34;102673.81;5116622;28;1024;-47
2021/08/24 08:34:50;;;;;;;;;;;;;;;20.26;63.65;102677.00;5116773;28;839;-49
2021/08/24 08:37:15;;;;;;;;;;;;;;;20.25;64.14;102679.81;5098459;28;1762;-51
2021/08/24 08:39:40;;;;;;;;;;;;;;;20.24;63.65;102681.69;5116677;28;1959;-52
2021/08/24 08:42:05;;;;;;;;;;;;;;;20.21;64.54;102676.50;5116639;28;1052;-50
2021/08/24 08:44:30;;;;;;;;;;;;;;;20.19;63.94;102683.88;5116495;28;865;-50
2021/08/24 08:46:55;;;;;;;;;;;;;;;20.15;64.21;102685.09;5116760;28;1489;-50
2021/08/24 08:49:20;;;;;;;;;;;;;;;20.11;64.46;102683.59;5132738;27;1777;-52
2021/08/24 08:51:46;;;;;;;;;;;;;;;20.11;64.10;102686.28;5118297;27;2105;-51
2021/08/24 08:54:11;;;;;;;;;;;;;;;20.07;63.64;102684.78;5116225;28;814;-49
2021/08/24 08:56:36;;;;;;;;;;;;;;;20.11;62.96;102697.13;5116001;28;1044;-49
2021/08/24 08:59:01;;;;;;;;;;;;;;;20.11;63.57;102684.44;5097803;28;1894;-49
2021/08/24 09:01:26;;;;;;;;;;;;;;;20.19;63.57;102693.84;5097866;28;789;-46
2021/08/24 09:03:52;;;;;;;;;;;;;;;20.22;63.50;102689.06;5116518;27;1768;-49
2021/08/24 09:06:17;;;;;;;;;;;;;;;20.22;64.02;102693.63;5132826;27;1605;-51
2021/08/24 09:08:42;;;;;;;;;;;;;;;20.22;63.60;102699.03;5117432;27;1525;-49
2021/08/24 09:11:09;;;;;;;;;;;;;;;20.21;63.19;102691.88;5115954;28;906;-54
2021/08/24 09:13:35;;;;;;;;;;;;;;;20.19;63.06;102697.41;5115979;28;916;-52
2021/08/24 09:16:00;;;;;;;;;;;;;;;20.19;63.15;102686.59;5116164;28;861;-51
2021/08/24 09:18:25;;;;;;;;;;;;;;;20.18;63.27;102679.44;5121184;27;1955;-53
2021/08/24 09:20:50;;;;;;;;;;;;;;;20.22;62.86;102689.06;5116656;28;1232;-53
2021/08/24 09:23:15;;;;;;;;;;;;;;;20.19;62.52;102674.91;5116022;28;1052;-53
2021/08/24 09:25:40;;;;;;;;;;;;;;;20.19;63.07;102683.88;5129454;27;1722;-54
2021/08/24 09:28:05;;;;;;;;;;;;;;;20.22;62.66;102678.25;5136261;27;882;-51
2021/08/24 09:30:30;;;;;;;;;;;;;;;20.26;62.62;102677.00;5132479;27;1643;-54
2021/08/24 09:32:58;;;;;;;;;;;;;;;20.31;63.00;102677.50;5131796;27;1609;-53
2021/08/24 09:35:23;;;;;;;;;;;;;;;20.32;63.46;102673.81;5131571;27;1732;-53
2021/08/24 09:37:48;;;;;;;;;;;;;;;20.40;63.38;102681.41;5136060;27;1906;-52
2021/08/24 09:40:13;;;;;;;;;;;;;;;20.39;63.36;102682.38;5136031;27;1435;-53
2021/08/24 09:42:40;;;;;;;;;;;;;;;20.44;63.61;102685.56;5136057;27;1516;-53
2021/08/24 09:45:05;;;;;;;;;;;;;;;20.42;63.36;102688.41;5136236;28;1453;-51
2021/08/24 09:47:30;;;;;;;;;;;;;;;20.42;63.11;102682.16;5130807;28;1768;-48
2021/08/24 09:49:55;;;;;;;;;;;;;;;20.44;63.50;102691.84;5136045;28;1499;-50
2021/08/24 09:52:20;;;;;;;;;;;;;;;20.42;63.09;102685.69;5135835;27;953;-54
2021/08/24 09:54:46;;;;;;;;;;;;;;;20.41;63.29;102680.44;5134576;28;1496;-49
2021/08/24 09:57:11;;;;;;;;;;;;;;;20.41;63.22;102692.13;5136238;28;1478;-50
2021/08/24 09:59:36;;;;;;;;;;;;;;;20.41;63.21;102692.13;5135817;28;1894;-48
2021/08/24 10:02:01;;;;;;;;;;;;;;;20.40;63.31;102681.41;5112709;28;1631;-47
2021/08/24 10:04:26;;;;;;;;;;;;;;;20.40;63.51;102676.00;5129230;28;1514;-47
2021/08/24 10:06:51;;;;;;;;;;;;;;;20.38;63.54;102681.53;5134357;28;1712;-48
2021/08/24 10:09:16;;;;;;;;;;;;;;;20.35;64.06;102679.00;5135837;28;841;-50
2021/08/24 10:11:41;;;;;;;;;;;;;;;20.35;63.17;102676.31;5130446;28;1497;-48
2021/08/24 10:14:06;;;;;;;;;;;;;;;20.34;63.45;102673.72;5126851;28;1734;-48
2021/08/24 10:16:32;;;;;;;;;;;;;;;20.33;63.53;102672.84;5125355;28;1849;-51
2021/08/24 10:18:57;;;;;;;;;;;;;;;20.31;63.43;102666.69;5107196;27;1949;-48
2021/08/24 10:21:22;;;;;;;;;;;;;;;20.30;63.53;102664.97;5128343;27;1448;-48
2021/08/24 10:23:47;;;;;;;;;;;;;;;20.29;63.95;102663.22;5127783;27;1456;-46
2021/08/24 10:26:12;;;;;;;;;;;;;;;20.29;64.21;102667.78;5129218;27;1733;-51
2021/08/24 10:28:37;;;;;;;;;;;;;;;20.32;63.71;102665.69;5127288;27;1730;-51
2021/08/24 10:31:02;;;;;;;;;;;;;;;20.35;63.17;102657.34;5128866;27;1803;-53
2021/08/24 10:33:29;;;;;;;;;;;;;;;20.35;63.41;102665.47;5124988;27;1731;-51
2021/08/24 10:35:54;;;;;;;;;;;;;;;20.41;63.79;102666.88;5128023;27;2059;-53
2021/08/24 10:38:19;;;;;;;;;;;;;;;20.40;64.05;102660.59;5132458;27;1910;-51
2021/08/24 10:40:45;;;;;;;;;;;;;;;20.42;63.82;102658.63;5135940;27;1511;-51
2021/08/24 10:43:10;;;;;;;;;;;;;;;20.45;63.15;102666.50;5135223;27;2011;-53
2021/08/24 10:45:35;;;;;;;;;;;;;;;20.45;63.01;102660.22;5131321;27;1677;-50
2021/08/24 10:48:00;;;;;;;;;;;;;;;20.45;62.91;102654.81;5137303;27;1737;-51
2021/08/24 10:50:25;;;;;;;;;;;;;;;20.49;63.13;102663.56;5132504;27;1527;-53
2021/08/24 10:52:51;;;;;;;;;;;;;;;20.49;63.29;102663.56;5126332;27;1619;-52
2021/08/24 10:55:16;;;;;;;;;;;;;;;20.51;63.32;102657.03;5129750;27;1685;-49
2021/08/24 10:57:42;;;;;;;;;;;;;;;20.50;62.92;102659.88;5103261;27;1953;-49
2021/08/24 11:00:07;;;;;;;;;;;;;;;20.48;62.77;102656.41;5122424;27;1667;-51
2021/08/24 11:02:32;;;;;;;;;;;;;;;20.49;63.39;102658.16;5126536;27;1495;-52
2021/08/24 11:04:57;;;;;;;;;;;;;;;20.51;62.57;102658.91;5123564;27;1662;-50
2021/08/24 11:07:22;;;;;;;;;;;;;;;20.50;62.66;102641.78;5123318;27;1604;-50
2021/08/24 11:09:47;;;;;;;;;;;;;;;20.57;63.16;102645.75;5122526;27;1552;-51
2021/08/24 11:12:12;;;;;;;;;;;;;;;20.51;63.01;102639.94;5128618;27;1642;-53
2021/08/24 11:14:38;;;;;;;;;;;;;;;20.51;62.67;102642.63;5118959;27;1655;-50
2021/08/24 11:17:03;;;;;;;;;;;;;;;20.58;63.17;102635.78;5131655;27;2620;-52
2021/08/24 11:19:28;;;;;;;;;;;;;;;20.63;62.86;102644.38;5137289;27;1955;-52
2021/08/24 11:21:53;;;;;;;;;;;;;;;20.62;63.41;102642.66;5133709;27;1752;-49
2021/08/24 11:24:18;;;;;;;;;;;;;;;20.57;62.11;102628.63;5119982;27;1911;-53
2021/08/24 11:26:44;;;;;;;;;;;;;;;20.62;62.86;102626.38;5122818;27;1652;-49
2021/08/24 11:29:09;;;;;;;;;;;;;;;20.61;62.95;102621.97;5103990;27;1594;-50
2021/08/24 11:31:34;;;;;;;;;;;;;;;20.66;62.82;102628.75;5121927;27;1543;-53
2021/08/24 11:33:59;;;;;;;;;;;;;;;20.66;62.39;102627.88;5135530;27;1747;-52
2021/08/24 11:36:24;;;;;;;;;;;;;;;20.65;62.23;102620.72;5121399;27;1616;-52
2021/08/24 11:38:49;;;;;;;;;;;;;;;20.69;61.85;102622.22;5119603;27;1975;-48
2021/08/24 11:41:14;;;;;;;;;;;;;;;20.65;62.78;102620.72;5123534;27;1959;-48
2021/08/24 11:43:39;;;;;;;;;;;;;;;20.69;62.09;102614.97;5123893;27;1708;-51
2021/08/24 11:46:04;;;;;;;;;;;;;;;20.59;62.06;102618.53;5117802;27;1732;-50
2021/08/24 11:48:30;;;;;;;;;;;;;;;20.63;62.59;102614.56;5129271;27;1649;-47
2021/08/24 11:50:55;;;;;;;;;;;;;;;20.58;62.63;102619.53;5134472;27;2282;-48
2021/08/24 11:53:20;;;;;;;;;;;;;;;20.56;62.08;102618.78;5123994;27;1787;-51
2021/08/24 11:55:45;;;;;;;;;;;;;;;20.60;62.22;102602.13;5137059;27;1559;-48
2021/08/24 11:58:10;;;;;;;;;;;;;;;20.58;62.58;102603.25;5136132;27;1943;-48
2021/08/24 12:00:35;;;;;;;;;;;;;;;20.65;62.46;102601.78;5124994;27;2157;-49
2021/08/24 12:03:02;;;;;;;;;;;;;;;20.76;62.85;102596.38;5120901;27;2180;-53
2021/08/24 12:05:27;;;;;;;;;;;;;;;20.73;62.51;102592.06;5129471;27;1712;-53
2021/08/24 12:07:52;;;;;;;;;;;;;;;20.71;62.42;102598.59;5121057;27;1553;-48
2021/08/24 12:10:17;;;;;;;;;;;;;;;20.70;62.69;102586.03;5118722;27;1827;-48
2021/08/24 12:12:42;;;;;;;;;;;;;;;20.73;62.28;102597.47;5117223;28;1798;-46
2021/08/24 12:15:07;;;;;;;;;;;;;;;20.73;62.56;102591.19;5117120;27;1423;-46
2021/08/24 12:17:33;;;;;;;;;;;;;;;20.72;62.21;102597.59;5116898;27;1893;-50
2021/08/24 12:19:58;;;;;;;;;;;;;;;20.75;61.67;102589.22;5116858;27;1731;-47
2021/08/24 12:22:23;;;;;;;;;;;;;;;20.78;62.21;102591.69;5130335;27;1830;-48
2021/08/24 12:24:48;;;;;;;;;;;;;;;20.77;62.06;102598.09;5136723;27;1703;-47
2021/08/24 12:27:13;;;;;;;;;;;;;;;20.75;62.24;102594.66;5121095;27;1662;-47
2021/08/24 12:29:39;;;;;;;;;;;;;;;20.78;62.54;102594.41;5128825;27;1572;-52
2021/08/24 12:32:05;;;;;;;;;;;;;;;20.81;62.71;102588.72;5127104;27;1749;-48
2021/08/24 12:34:30;;;;;;;;;;;;;;;20.79;62.55;102588.84;5122157;27;1577;-52
2021/08/24 12:36:56;;;;;;;;;;;;;;;20.83;62.87;102586.75;5120958;27;1770;-47